Time;durP1;ratioP1;P1;durP2;ratioP2;P2;SDS_P1;SDS_P2;PMS_P1;PMS_P2;Temp;Humidity;BMP_temperature;BMP_pressure;BME280_temperature;BME280_humidity;BME280_pressure;Samples;Min_cycle;Max_cycle;Signal;HPM_P1;HPM_P2
2023/01/29 00:01:47;;;;;;;10.03;5.73;;;2.80;1.00;;;;;;5046756;28;20214;-61
2023/01/29 00:04:13;;;;;;;8.57;5.87;;;2.70;1.00;;;;;;5049767;28;20218;-60
2023/01/29 00:06:39;;;;;;;7.70;5.30;;;2.60;1.00;;;;;;5049527;28;20416;-62
2023/01/29 00:09:05;;;;;;;8.10;6.53;;;2.50;1.00;;;;;;5050534;28;20632;-61
2023/01/29 00:11:30;;;;;;;6.40;5.60;;;2.50;1.00;;;;;;5048890;28;20550;-62
2023/01/29 00:13:57;;;;;;;7.13;5.37;;;2.40;1.00;;;;;;5062591;28;20994;-60
2023/01/29 00:16:23;;;;;;;6.93;5.50;;;2.50;1.00;;;;;;5054138;28;20452;-61
2023/01/29 00:18:48;;;;;;;8.10;6.23;;;2.50;1.00;;;;;;5049678;28;20704;-60
2023/01/29 00:21:17;;;;;;;7.00;6.03;;;2.50;1.00;;;;;;5049653;28;20232;-60
2023/01/29 00:23:43;;;;;;;8.90;5.80;;;2.60;1.00;;;;;;5051397;28;20698;-60
2023/01/29 00:26:09;;;;;;;13.80;6.10;;;2.60;1.00;;;;;;5049681;28;20482;-62
2023/01/29 00:28:35;;;;;;;9.13;5.93;;;2.40;1.00;;;;;;5052170;28;20186;-61
2023/01/29 00:31:21;;;;;;;10.73;5.90;;;2.30;1.00;;;;;;5050333;28;20539;-61
2023/01/29 00:33:48;;;;;;;8.63;6.00;;;2.30;1.00;;;;;;5047633;28;20463;-61
2023/01/29 00:36:15;;;;;;;8.03;5.87;;;2.40;1.00;;;;;;5050385;28;20440;-60
2023/01/29 00:38:41;;;;;;;9.10;6.67;;;2.30;1.00;;;;;;5047488;28;20448;-61
2023/01/29 00:46:40;;;;;;;8.60;5.90;;;2.20;1.00;;;;;;5046247;28;20558;-61
2023/01/29 00:49:06;;;;;;;10.60;6.60;;;2.20;1.00;;;;;;5047262;28;20548;-61
2023/01/29 00:51:32;;;;;;;8.00;6.23;;;2.40;1.00;;;;;;5046232;28;20234;-60
2023/01/29 00:53:58;;;;;;;8.20;6.80;;;2.30;1.00;;;;;;5048902;28;20538;-60
2023/01/29 00:56:24;;;;;;;10.67;6.40;;;2.40;1.00;;;;;;5049527;28;20198;-61
2023/01/29 00:58:50;;;;;;;9.43;6.60;;;2.30;1.00;;;;;;5050338;28;20181;-61
2023/01/29 01:01:16;;;;;;;11.03;7.40;;;2.40;1.00;;;;;;5049829;28;20443;-62
2023/01/29 01:03:41;;;;;;;10.57;7.30;;;2.50;1.00;;;;;;5049294;28;20274;-60
2023/01/29 01:06:09;;;;;;;8.90;6.33;;;2.60;1.00;;;;;;5050417;28;20190;-61
2023/01/29 01:11:20;;;;;;;10.40;6.60;;;2.50;1.00;;;;;;5047936;28;20483;-61
2023/01/29 01:13:46;;;;;;;10.90;7.27;;;2.30;1.00;;;;;;5046261;28;20467;-61
2023/01/29 01:16:14;;;;;;;10.73;7.03;;;2.30;1.00;;;;;;5045269;28;20455;-61
2023/01/29 01:18:40;;;;;;;10.53;7.63;;;2.30;1.00;;;;;;5049137;28;20658;-62
2023/01/29 01:21:05;;;;;;;9.80;7.03;;;2.30;1.00;;;;;;5047185;28;20542;-60
2023/01/29 01:23:31;;;;;;;9.00;7.00;;;2.40;1.00;;;;;;5048917;28;20871;-61
2023/01/29 01:25:57;;;;;;;10.37;8.23;;;2.40;1.00;;;;;;5047084;28;20188;-60
2023/01/29 01:28:24;;;;;;;9.97;8.20;;;2.30;1.00;;;;;;5047694;28;21027;-61
2023/01/29 01:30:49;;;;;;;8.97;7.07;;;2.30;1.00;;;;;;5047399;28;20482;-61
2023/01/29 01:33:15;;;;;;;9.90;8.17;;;2.30;1.00;;;;;;5047910;28;20445;-61
2023/01/29 01:35:41;;;;;;;10.13;7.00;;;2.20;1.00;;;;;;5054708;28;20190;-60
2023/01/29 01:38:06;;;;;;;10.73;7.87;;;2.50;1.00;;;;;;5047262;28;20456;-60
2023/01/29 01:40:32;;;;;;;11.57;8.00;;;2.00;1.00;;;;;;5050949;28;20349;-61
2023/01/29 01:43:00;;;;;;;9.37;7.90;;;2.00;1.00;;;;;;5047865;28;20196;-60
2023/01/29 01:45:30;;;;;;;12.33;7.97;;;2.10;1.00;;;;;;5052189;28;20198;-60
2023/01/29 01:48:15;;;;;;;8.83;7.60;;;2.10;1.00;;;;;;5046394;28;20450;-59
2023/01/29 01:50:52;;;;;;;11.17;7.60;;;1.90;1.00;;;;;;5045247;28;20447;-60
2023/01/29 01:53:27;;;;;;;10.53;7.63;;;1.90;1.00;;;;;;5046298;28;20558;-61
2023/01/29 01:56:02;;;;;;;9.57;8.20;;;2.00;1.00;;;;;;5046348;28;20466;-60
2023/01/29 01:58:37;;;;;;;9.20;7.80;;;2.00;1.00;;;;;;5047647;28;20453;-59
2023/01/29 02:01:06;;;;;;;12.20;8.97;;;2.00;1.00;;;;;;5062692;28;20494;-60
2023/01/29 02:09:34;;;;;;;13.50;10.03;;;1.80;1.00;;;;;;5048459;28;21046;-60
2023/01/29 02:12:02;;;;;;;12.70;9.40;;;1.70;1.00;;;;;;5047087;28;20459;-60
2023/01/29 02:14:29;;;;;;;12.00;9.13;;;1.70;1.00;;;;;;5046428;28;20559;-60
2023/01/29 02:16:55;;;;;;;13.83;9.30;;;1.70;1.00;;;;;;5048976;28;20466;-60
2023/01/29 02:19:31;;;;;;;14.80;10.50;;;1.80;1.00;;;;;;5058180;28;20444;-61
2023/01/29 02:22:05;;;;;;;16.00;10.97;;;1.80;1.00;;;;;;5044792;28;20193;-60
2023/01/29 02:24:50;;;;;;;12.60;8.17;;;1.80;1.00;;;;;;5048128;28;20570;-61
2023/01/29 02:27:23;;;;;;;13.43;9.90;;;1.80;1.00;;;;;;5044964;28;20462;-60
2023/01/29 02:30:06;;;;;;;14.50;10.20;;;1.70;1.00;;;;;;5051440;28;20447;-60
2023/01/29 02:32:53;;;;;;;15.67;9.90;;;1.70;1.00;;;;;;5047244;28;20457;-61
2023/01/29 02:35:33;;;;;;;11.67;9.00;;;1.60;1.00;;;;;;5046270;28;20487;-60
2023/01/29 02:38:23;;;;;;;10.80;8.80;;;1.50;1.00;;;;;;5044288;28;20440;-60
2023/01/29 02:41:00;;;;;;;13.80;9.60;;;1.40;1.00;;;;;;5049295;28;20437;-62
2023/01/29 02:43:47;;;;;;;11.10;9.80;;;1.40;1.00;;;;;;5044341;28;20992;-60
2023/01/29 02:46:26;;;;;;;12.20;10.17;;;1.40;1.00;;;;;;5044381;28;20448;-60
2023/01/29 02:49:03;;;;;;;15.07;10.97;;;1.40;1.00;;;;;;5048269;28;20529;-60
2023/01/29 02:51:56;;;;;;;16.60;11.30;;;1.40;1.00;;;;;;5044891;28;20472;-62
2023/01/29 02:54:32;;;;;;;13.53;11.27;;;1.30;1.00;;;;;;5045101;28;20476;-62
2023/01/29 02:57:03;;;;;;;11.37;9.43;;;1.20;1.00;;;;;;5042326;28;20520;-62
2023/01/29 02:59:38;;;;;;;16.40;11.10;;;1.20;1.00;;;;;;5048194;28;20440;-60
2023/01/29 03:02:18;;;;;;;15.60;11.30;;;1.20;1.00;;;;;;5046499;28;20443;-61
2023/01/29 03:04:49;;;;;;;16.13;11.90;;;1.20;1.00;;;;;;5057637;28;20467;-61
2023/01/29 03:07:43;;;;;;;14.67;12.00;;;1.10;1.00;;;;;;5045917;28;20449;-61
2023/01/29 03:10:15;;;;;;;12.77;10.00;;;1.10;1.00;;;;;;5046913;28;20447;-59
2023/01/29 03:12:43;;;;;;;14.77;10.43;;;1.10;1.00;;;;;;5046561;28;20482;-61
2023/01/29 03:15:15;;;;;;;14.57;11.07;;;1.10;1.00;;;;;;5043798;28;20467;-60
2023/01/29 03:17:59;;;;;;;13.80;10.57;;;1.20;1.00;;;;;;5047491;28;20538;-61
2023/01/29 03:20:36;;;;;;;16.17;11.20;;;1.10;1.00;;;;;;5047224;28;20953;-60
2023/01/29 03:23:13;;;;;;;13.63;10.83;;;1.20;1.00;;;;;;5041120;28;20535;-60
2023/01/29 03:34:17;;;;;;;15.97;10.60;;;1.10;1.00;;;;;;5049061;28;20461;-61
2023/01/29 03:36:56;;;;;;;13.50;10.20;;;1.10;1.00;;;;;;5048169;28;20435;-60
2023/01/29 03:39:26;;;;;;;13.30;9.87;;;1.10;1.00;;;;;;5045349;28;20444;-60
2023/01/29 03:42:07;;;;;;;15.57;9.60;;;1.20;1.00;;;;;;5047134;28;20448;-60
2023/01/29 03:44:42;;;;;;;13.90;10.53;;;1.20;1.00;;;;;;5047664;28;20436;-61
2023/01/29 03:47:23;;;;;;;13.27;8.73;;;1.20;1.00;;;;;;5035970;28;20448;-60
2023/01/29 03:49:58;;;;;;;11.17;8.60;;;1.10;1.00;;;;;;5043175;28;20848;-60
2023/01/29 03:52:45;;;;;;;12.33;9.60;;;1.20;1.00;;;;;;5045302;28;21009;-61
2023/01/29 03:55:14;;;;;;;11.80;8.80;;;1.10;1.00;;;;;;5046963;28;20509;-60
2023/01/29 03:57:44;;;;;;;12.07;9.63;;;1.10;1.00;;;;;;5047535;28;21024;-60
2023/01/29 04:00:27;;;;;;;12.70;9.03;;;0.90;1.00;;;;;;5040883;28;20460;-61
2023/01/29 04:03:09;;;;;;;11.53;9.67;;;0.70;1.00;;;;;;5045125;28;20441;-60
2023/01/29 04:05:42;;;;;;;17.00;9.27;;;0.80;1.00;;;;;;5044958;28;20993;-60
2023/01/29 04:08:15;;;;;;;12.03;9.33;;;0.80;1.00;;;;;;5047506;28;20497;-60
2023/01/29 04:10:43;;;;;;;10.47;8.70;;;0.80;1.00;;;;;;5046182;28;20492;-60
2023/01/29 04:13:11;;;;;;;12.77;9.20;;;0.60;1.00;;;;;;5045736;28;20798;-60
2023/01/29 04:15:54;;;;;;;12.60;9.53;;;0.60;1.00;;;;;;5039272;28;20513;-60
2023/01/29 04:18:19;;;;;;;11.73;9.57;;;0.80;1.00;;;;;;5042893;28;20435;-60
2023/01/29 04:20:46;;;;;;;18.60;9.23;;;0.70;1.00;;;;;;5041739;28;20980;-60
2023/01/29 04:23:23;;;;;;;10.77;9.07;;;0.60;1.00;;;;;;5045636;28;20194;-60
2023/01/29 04:26:05;;;;;;;12.07;9.10;;;0.70;1.00;;;;;;5046069;28;21017;-61
2023/01/29 04:28:49;;;;;;;15.77;9.87;;;0.70;1.00;;;;;;5051515;28;20442;-60
2023/01/29 04:31:15;;;;;;;11.57;9.37;;;0.70;1.00;;;;;;5046334;28;20440;-59
2023/01/29 04:34:05;;;;;;;14.43;10.13;;;0.70;1.00;;;;;;5042412;28;20482;-60
2023/01/29 04:36:57;;;;;;;11.80;8.73;;;0.60;1.00;;;;;;5048209;28;20444;-59
2023/01/29 04:39:49;;;;;;;11.93;9.10;;;0.70;1.00;;;;;;5046499;28;20468;-59
2023/01/29 04:42:36;;;;;;;11.40;8.70;;;0.60;1.00;;;;;;5050472;28;20435;-60
2023/01/29 04:45:19;;;;;;;12.83;10.00;;;0.50;1.00;;;;;;5049928;28;20526;-61
2023/01/29 04:47:53;;;;;;;16.10;10.77;;;0.50;1.00;;;;;;5049076;28;20558;-61
2023/01/29 04:50:28;;;;;;;10.90;9.47;;;0.50;1.00;;;;;;5044254;28;20478;-59
2023/01/29 04:53:16;;;;;;;12.30;9.83;;;0.50;1.00;;;;;;5048329;28;20484;-59
2023/01/29 04:56:03;;;;;;;13.27;9.40;;;0.50;1.00;;;;;;5050041;28;20467;-60
2023/01/29 04:58:36;;;;;;;15.53;10.03;;;0.50;1.00;;;;;;5049549;28;20442;-60
2023/01/29 05:01:05;;;;;;;14.17;10.63;;;0.70;1.00;;;;;;5049341;28;20522;-60
2023/01/29 05:03:33;;;;;;;14.40;9.23;;;0.60;1.00;;;;;;5046051;28;20858;-59
2023/01/29 05:06:00;;;;;;;13.20;9.70;;;0.50;1.00;;;;;;5050012;28;20510;-60
2023/01/29 05:08:29;;;;;;;12.70;10.03;;;0.40;1.00;;;;;;5057087;28;20439;-60
2023/01/29 05:10:57;;;;;;;12.40;9.33;;;0.50;1.00;;;;;;5055395;28;20938;-60
2023/01/29 05:13:25;;;;;;;12.47;8.60;;;0.40;1.00;;;;;;5049695;28;20454;-60
2023/01/29 05:16:00;;;;;;;11.70;9.17;;;0.40;1.00;;;;;;5049099;28;21006;-60
2023/01/29 05:18:27;;;;;;;12.60;8.80;;;0.40;1.00;;;;;;5045008;28;20453;-60
2023/01/29 05:20:55;;;;;;;10.83;8.63;;;0.50;1.00;;;;;;5045332;28;20479;-59
2023/01/29 05:23:22;;;;;;;12.90;9.50;;;0.60;1.00;;;;;;5047803;28;20468;-59
2023/01/29 05:25:49;;;;;;;13.87;9.50;;;0.40;1.00;;;;;;5051698;28;20921;-60
2023/01/29 05:28:16;;;;;;;12.67;9.40;;;0.30;1.00;;;;;;5046411;28;20452;-59
2023/01/29 05:30:53;;;;;;;12.37;8.70;;;0.30;1.00;;;;;;5050066;28;20459;-59
2023/01/29 05:33:21;;;;;;;10.27;8.27;;;0.30;1.00;;;;;;5044041;28;20962;-60
2023/01/29 05:35:48;;;;;;;13.53;8.80;;;0.40;1.00;;;;;;5049354;28;20491;-60
2023/01/29 05:38:16;;;;;;;10.47;9.17;;;0.50;1.00;;;;;;5048300;28;20478;-59
2023/01/29 05:40:42;;;;;;;12.60;9.13;;;0.50;1.00;;;;;;5051075;28;20450;-60
2023/01/29 05:43:19;;;;;;;14.67;10.13;;;0.50;1.00;;;;;;5050175;28;20532;-60
2023/01/29 05:45:56;;;;;;;13.63;9.20;;;0.50;1.00;;;;;;5051366;28;20456;-59
2023/01/29 05:48:22;;;;;;;11.37;9.10;;;0.50;1.00;;;;;;5042432;28;20569;-59
2023/01/29 05:50:48;;;;;;;13.40;9.33;;;0.40;1.00;;;;;;5048239;28;20458;-60
2023/01/29 05:53:14;;;;;;;12.07;9.47;;;0.30;1.00;;;;;;5047213;28;20472;-60
2023/01/29 05:55:44;;;;;;;12.07;9.70;;;0.40;1.00;;;;;;5049020;28;20204;-60
2023/01/29 05:58:10;;;;;;;12.13;9.40;;;0.40;1.00;;;;;;5045909;28;20252;-61
2023/01/29 06:00:35;;;;;;;11.60;9.30;;;0.40;1.00;;;;;;5046548;28;20456;-60
2023/01/29 06:03:01;;;;;;;15.17;10.80;;;0.50;1.00;;;;;;5043403;28;20278;-60
2023/01/29 06:05:27;;;;;;;15.23;10.47;;;0.40;1.00;;;;;;5048350;28;20193;-60
2023/01/29 06:07:53;;;;;;;12.20;8.73;;;0.30;1.00;;;;;;5043122;28;20456;-60
2023/01/29 06:10:18;;;;;;;12.97;9.63;;;0.30;1.00;;;;;;5048301;28;20209;-60
2023/01/29 06:12:44;;;;;;;12.37;9.80;;;0.40;1.00;;;;;;5056429;28;20194;-60
2023/01/29 06:15:11;;;;;;;12.00;9.90;;;0.50;1.00;;;;;;5046482;28;20876;-60
2023/01/29 06:17:37;;;;;;;13.73;10.40;;;0.40;1.00;;;;;;5048284;28;20671;-60
2023/01/29 06:20:04;;;;;;;12.93;10.27;;;0.50;1.00;;;;;;5047840;28;20446;-60
2023/01/29 06:22:29;;;;;;;13.13;9.00;;;0.40;1.00;;;;;;5046564;28;20809;-61
2023/01/29 06:24:55;;;;;;;12.23;9.93;;;0.50;1.00;;;;;;5047299;28;20443;-59
2023/01/29 06:27:21;;;;;;;12.30;8.93;;;0.70;1.00;;;;;;5047137;28;20654;-60
2023/01/29 06:29:46;;;;;;;11.50;9.70;;;0.80;1.00;;;;;;5049172;28;20637;-60
2023/01/29 06:32:12;;;;;;;11.40;8.60;;;0.70;1.00;;;;;;5046698;28;20666;-60
2023/01/29 06:34:37;;;;;;;15.10;9.00;;;0.70;1.00;;;;;;5050059;28;20353;-59
2023/01/29 06:37:03;;;;;;;13.10;9.97;;;0.80;1.00;;;;;;5045172;28;20289;-60
2023/01/29 06:39:28;;;;;;;11.73;9.17;;;0.70;1.00;;;;;;5049662;28;20193;-60
2023/01/29 06:41:54;;;;;;;11.83;9.83;;;0.90;1.00;;;;;;5058809;28;20564;-59
2023/01/29 06:44:20;;;;;;;14.63;9.40;;;1.10;1.00;;;;;;5047759;28;20194;-60
2023/01/29 06:46:45;;;;;;;12.83;9.47;;;1.10;1.00;;;;;;5044049;28;20212;-60
2023/01/29 06:49:11;;;;;;;12.97;10.23;;;1.20;1.00;;;;;;5049792;28;20225;-60
2023/01/29 06:51:37;;;;;;;10.70;9.63;;;1.30;1.00;;;;;;5048549;28;20618;-60
2023/01/29 06:54:02;;;;;;;12.40;9.93;;;1.40;1.00;;;;;;5048698;28;20220;-60
2023/01/29 06:56:28;;;;;;;11.40;9.57;;;1.50;1.00;;;;;;5045899;28;20194;-60
2023/01/29 06:58:54;;;;;;;11.97;9.97;;;1.40;1.00;;;;;;5048524;28;20656;-62
2023/01/29 07:01:19;;;;;;;11.47;9.70;;;1.50;1.00;;;;;;5042704;28;20263;-60
2023/01/29 07:03:49;;;;;;;9.90;8.90;;;1.40;1.00;;;;;;5047496;28;20196;-60
2023/01/29 07:06:14;;;;;;;11.70;9.73;;;1.30;1.00;;;;;;5048301;28;20214;-60
2023/01/29 07:08:40;;;;;;;11.40;9.80;;;1.50;1.00;;;;;;5048835;28;21007;-61
2023/01/29 07:11:06;;;;;;;10.77;9.20;;;1.30;1.00;;;;;;5044694;28;20184;-59
2023/01/29 07:13:32;;;;;;;11.93;9.93;;;1.30;1.00;;;;;;5048685;28;20189;-60
2023/01/29 07:16:02;;;;;;;14.57;10.50;;;1.40;1.00;;;;;;5054304;28;20871;-61
2023/01/29 07:18:28;;;;;;;11.20;9.13;;;1.40;1.00;;;;;;5042827;28;20893;-60
2023/01/29 07:20:55;;;;;;;12.00;9.57;;;1.50;1.00;;;;;;5041462;28;20455;-60
2023/01/29 07:23:20;;;;;;;13.30;10.50;;;1.60;1.00;;;;;;5046206;28;20533;-55
2023/01/29 07:25:48;;;;;;;11.17;9.30;;;1.40;1.00;;;;;;5040960;28;21075;-54
2023/01/29 07:28:17;;;;;;;13.47;10.10;;;1.50;1.00;;;;;;5048020;28;20669;-54
2023/01/29 07:30:43;;;;;;;12.10;9.77;;;1.50;1.00;;;;;;5054054;28;20443;-53
2023/01/29 07:33:09;;;;;;;12.17;10.40;;;1.50;1.00;;;;;;5053359;28;20455;-55
2023/01/29 07:35:37;;;;;;;10.00;8.90;;;1.50;1.00;;;;;;5046394;28;20346;-54
2023/01/29 07:38:03;;;;;;;11.50;9.40;;;1.50;1.00;;;;;;5052913;28;20532;-56
2023/01/29 07:40:29;;;;;;;9.70;8.73;;;1.50;1.00;;;;;;5049298;28;20535;-59
2023/01/29 07:43:03;;;;;;;10.00;8.90;;;1.60;1.00;;;;;;5048257;28;20529;-61
2023/01/29 07:45:29;;;;;;;11.90;9.63;;;1.70;1.00;;;;;;5048991;28;20195;-60
2023/01/29 07:47:56;;;;;;;11.07;8.67;;;1.80;1.00;;;;;;5054642;28;20456;-59
2023/01/29 07:50:26;;;;;;;13.93;9.63;;;1.90;1.00;;;;;;5055412;28;20443;-60
2023/01/29 07:52:53;;;;;;;11.80;9.00;;;2.00;1.00;;;;;;5043845;28;20510;-60
2023/01/29 07:55:19;;;;;;;10.97;9.70;;;2.00;1.00;;;;;;5059852;28;20538;-59
2023/01/29 07:57:45;;;;;;;11.73;9.67;;;2.10;1.00;;;;;;5051943;28;20653;-59
2023/01/29 08:00:12;;;;;;;9.83;8.83;;;2.10;1.00;;;;;;5048305;28;20546;-59
2023/01/29 08:02:38;;;;;;;10.00;8.97;;;2.20;1.00;;;;;;5048086;28;20186;-61
2023/01/29 08:05:04;;;;;;;10.50;9.23;;;2.40;1.00;;;;;;5055895;28;20443;-59
2023/01/29 08:07:30;;;;;;;12.87;9.13;;;2.60;1.00;;;;;;5049774;28;20834;-60
2023/01/29 08:09:55;;;;;;;11.83;9.47;;;2.80;1.00;;;;;;5043932;28;20456;-60
2023/01/29 08:12:21;;;;;;;10.37;8.70;;;2.80;1.00;;;;;;5053189;28;20183;-59
2023/01/29 08:14:46;;;;;;;10.90;8.70;;;2.90;1.00;;;;;;5047645;28;20241;-60
2023/01/29 08:17:13;;;;;;;15.10;9.40;;;2.80;1.00;;;;;;5055792;28;20533;-61
2023/01/29 08:19:38;;;;;;;14.03;8.93;;;2.90;1.00;;;;;;5051760;28;20185;-60
2023/01/29 08:22:05;;;;;;;10.40;9.13;;;2.80;1.00;;;;;;5048237;28;20460;-60
2023/01/29 08:24:31;;;;;;;11.33;9.40;;;2.70;1.00;;;;;;5051466;28;20218;-61
2023/01/29 08:26:57;;;;;;;10.97;8.40;;;2.90;1.00;;;;;;5048545;28;20487;-59
2023/01/29 08:29:22;;;;;;;11.60;9.73;;;2.70;1.00;;;;;;5058473;28;20446;-58
2023/01/29 08:31:48;;;;;;;13.67;9.27;;;2.70;1.00;;;;;;5052142;28;20762;-61
2023/01/29 08:34:14;;;;;;;10.53;9.53;;;2.80;1.00;;;;;;5043427;28;20213;-62
2023/01/29 08:36:40;;;;;;;10.67;8.70;;;2.80;1.00;;;;;;5046108;28;20188;-61
2023/01/29 08:39:05;;;;;;;12.83;8.80;;;2.80;1.00;;;;;;5051325;28;20185;-60
2023/01/29 08:41:31;;;;;;;10.53;9.17;;;2.90;1.00;;;;;;5052552;28;20926;-60
2023/01/29 08:43:59;;;;;;;11.07;9.70;;;3.00;1.00;;;;;;5048367;28;20192;-59
2023/01/29 08:46:24;;;;;;;10.80;8.93;;;3.10;1.00;;;;;;5049448;28;20581;-60
2023/01/29 08:48:50;;;;;;;10.60;9.07;;;3.20;1.00;;;;;;5047416;28;20494;-59
2023/01/29 08:51:16;;;;;;;10.23;9.17;;;3.20;1.00;;;;;;5053134;28;20216;-58
2023/01/29 08:53:41;;;;;;;12.67;9.03;;;3.30;1.00;;;;;;5042082;28;20199;-60
2023/01/29 08:56:07;;;;;;;11.03;8.87;;;3.30;1.00;;;;;;5047377;28;20225;-60
2023/01/29 08:58:33;;;;;;;11.20;9.30;;;3.30;1.00;;;;;;5047463;28;20278;-62
2023/01/29 09:01:09;;;;;;;10.40;9.40;;;3.40;1.00;;;;;;5054910;28;20224;-61
2023/01/29 09:03:35;;;;;;;12.10;10.17;;;3.50;1.00;;;;;;5045816;28;20194;-61
2023/01/29 09:06:01;;;;;;;11.37;9.53;;;3.50;1.00;;;;;;5049805;28;20455;-62
2023/01/29 09:08:27;;;;;;;10.70;9.60;;;3.60;1.00;;;;;;5048121;28;20429;-60
2023/01/29 09:10:52;;;;;;;9.83;8.80;;;3.70;1.00;;;;;;5050600;28;20950;-60
2023/01/29 09:13:18;;;;;;;12.40;9.73;;;3.80;1.00;;;;;;5053458;28;20440;-60
2023/01/29 09:15:43;;;;;;;11.80;9.80;;;3.80;1.00;;;;;;5052297;28;20293;-60
2023/01/29 09:18:09;;;;;;;10.57;8.73;;;3.80;1.00;;;;;;5046619;28;20702;-60
2023/01/29 09:20:37;;;;;;;12.07;9.83;;;3.80;1.00;;;;;;5046080;28;20194;-61
2023/01/29 09:23:08;;;;;;;11.07;8.90;;;3.60;1.00;;;;;;5060202;28;20281;-60
2023/01/29 09:25:35;;;;;;;12.37;9.90;;;3.50;1.00;;;;;;5046633;28;20541;-61
2023/01/29 09:28:00;;;;;;;14.30;10.70;;;3.70;1.00;;;;;;5046221;28;20453;-58
2023/01/29 09:30:26;;;;;;;10.00;8.83;;;3.80;1.00;;;;;;5043238;28;20457;-60
2023/01/29 09:32:51;;;;;;;10.77;9.63;;;3.90;1.00;;;;;;5054239;28;20197;-59
2023/01/29 09:35:17;;;;;;;11.17;9.50;;;3.90;1.00;;;;;;5055353;28;20230;-60
2023/01/29 09:37:47;;;;;;;10.90;9.00;;;4.00;1.00;;;;;;5051423;28;20190;-61
2023/01/29 09:40:31;;;;;;;12.80;9.30;;;4.00;1.00;;;;;;5046877;28;20270;-61
2023/01/29 09:43:03;;;;;;;13.50;10.10;;;3.90;1.00;;;;;;5045085;28;20972;-60
2023/01/29 09:45:30;;;;;;;10.73;8.83;;;3.80;1.00;;;;;;5043254;28;20749;-60
2023/01/29 09:47:59;;;;;;;12.00;9.50;;;3.90;1.00;;;;;;5054765;28;20433;-60
2023/01/29 09:50:40;;;;;;;10.40;9.33;;;3.90;1.00;;;;;;5046923;28;20536;-58
2023/01/29 09:53:32;;;;;;;11.97;9.73;;;3.80;1.00;;;;;;5057662;28;20484;-59
2023/01/29 09:56:15;;;;;;;14.10;10.63;;;3.90;1.00;;;;;;5051566;28;20480;-60
2023/01/29 09:58:43;;;;;;;14.20;9.70;;;3.90;1.00;;;;;;5048271;28;20455;-59
2023/01/29 10:01:17;;;;;;;12.33;10.33;;;3.80;1.00;;;;;;5057163;28;20437;-58
2023/01/29 10:04:13;;;;;;;12.70;10.20;;;3.70;1.00;;;;;;5051664;28;20440;-58
2023/01/29 10:07:00;;;;;;;12.83;10.43;;;3.20;1.00;;;;;;5052335;28;20440;-58
2023/01/29 10:09:46;;;;;;;13.73;10.40;;;3.60;1.00;;;;;;5051221;28;20495;-58
2023/01/29 10:12:24;;;;;;;13.57;9.57;;;3.60;1.00;;;;;;5054416;28;20437;-59
2023/01/29 10:15:16;;;;;;;11.77;10.27;;;3.50;1.00;;;;;;5050548;28;20479;-58
2023/01/29 10:18:05;;;;;;;12.60;9.80;;;3.60;1.00;;;;;;5044914;28;20456;-59
2023/01/29 10:20:52;;;;;;;11.90;9.00;;;3.70;1.00;;;;;;5051699;28;20517;-58
2023/01/29 10:23:29;;;;;;;12.10;9.33;;;3.70;1.00;;;;;;5048521;28;20447;-58
2023/01/29 10:25:54;;;;;;;11.80;10.17;;;3.80;1.00;;;;;;5047447;28;20455;-59
2023/01/29 10:28:27;;;;;;;13.63;10.20;;;3.80;1.00;;;;;;5048186;28;20459;-59
2023/01/29 10:31:19;;;;;;;10.40;9.23;;;3.70;1.00;;;;;;5058023;28;20686;-58
2023/01/29 10:33:53;;;;;;;11.90;9.83;;;3.70;1.00;;;;;;5043727;28;20447;-59
2023/01/29 10:36:43;;;;;;;10.37;9.00;;;3.70;1.00;;;;;;5052850;28;20758;-60
2023/01/29 10:39:20;;;;;;;14.00;9.50;;;3.80;1.00;;;;;;5051830;28;20439;-59
2023/01/29 10:42:10;;;;;;;11.27;10.07;;;3.80;1.00;;;;;;5056534;28;20452;-59
2023/01/29 10:44:48;;;;;;;12.73;11.00;;;3.90;1.00;;;;;;5046769;28;20834;-60
2023/01/29 10:47:35;;;;;;;15.23;9.97;;;4.00;1.00;;;;;;5053700;28;20477;-59
2023/01/29 10:50:17;;;;;;;12.40;10.27;;;3.80;1.00;;;;;;5052100;28;20464;-60
2023/01/29 10:53:13;;;;;;;13.13;9.80;;;3.50;1.00;;;;;;5057127;28;20473;-59
2023/01/29 10:55:53;;;;;;;15.10;11.13;;;3.40;1.00;;;;;;5049496;28;20459;-59
2023/01/29 10:58:29;;;;;;;13.03;10.10;;;3.20;1.00;;;;;;5052513;28;20837;-59
2023/01/29 11:00:55;;;;;;;15.00;9.50;;;3.10;1.00;;;;;;5043961;28;20450;-58
2023/01/29 11:03:24;;;;;;;13.60;10.10;;;3.20;1.00;;;;;;5056584;28;20781;-59
2023/01/29 11:06:07;;;;;;;14.37;10.87;;;3.30;1.00;;;;;;5046213;28;20446;-58
2023/01/29 11:08:47;;;;;;;13.83;10.90;;;3.60;1.00;;;;;;5054135;28;20529;-60
2023/01/29 11:11:16;;;;;;;13.57;9.80;;;3.70;1.00;;;;;;5044458;28;20451;-60
2023/01/29 11:14:05;;;;;;;12.00;9.90;;;3.90;1.00;;;;;;5045422;28;21025;-60
2023/01/29 11:16:40;;;;;;;12.27;10.10;;;4.00;1.00;;;;;;5045281;28;20807;-62
2023/01/29 11:19:06;;;;;;;15.57;10.53;;;4.40;1.00;;;;;;5046845;28;20452;-61
2023/01/29 11:21:48;;;;;;;10.63;9.37;;;4.60;1.00;;;;;;5039977;28;20566;-61
2023/01/29 11:24:17;;;;;;;13.90;10.33;;;4.60;1.00;;;;;;5041725;28;20274;-61
2023/01/29 11:26:45;;;;;;;14.70;9.20;;;4.40;1.00;;;;;;5040946;28;20461;-61
2023/01/29 11:29:29;;;;;;;13.87;10.33;;;4.30;1.00;;;;;;5040679;28;20461;-61
2023/01/29 11:31:56;;;;;;;13.47;10.67;;;4.30;1.00;;;;;;5044547;28;20983;-61
2023/01/29 11:34:26;;;;;;;11.00;9.23;;;4.30;1.00;;;;;;5045141;28;20483;-61
2023/01/29 11:37:04;;;;;;;14.37;9.80;;;4.10;1.00;;;;;;5041503;28;20472;-60
2023/01/29 11:39:31;;;;;;;12.77;9.70;;;4.10;1.00;;;;;;5044237;28;20531;-61
2023/01/29 11:41:59;;;;;;;11.37;10.17;;;4.10;1.00;;;;;;5045462;28;20479;-61
2023/01/29 11:44:38;;;;;;;12.50;10.63;;;4.30;1.00;;;;;;5045432;28;20452;-61
2023/01/29 11:47:09;;;;;;;10.10;8.70;;;4.10;1.00;;;;;;5053773;28;20485;-60
2023/01/29 11:49:36;;;;;;;15.90;10.00;;;4.20;1.00;;;;;;5048912;28;20802;-60
2023/01/29 11:52:08;;;;;;;10.30;9.00;;;4.10;1.00;;;;;;5045098;28;20494;-60
2023/01/29 11:54:38;;;;;;;11.13;9.73;;;4.00;1.00;;;;;;5050692;28;20519;-61
2023/01/29 11:57:04;;;;;;;14.77;10.00;;;3.90;1.00;;;;;;5049171;28;20841;-59
2023/01/29 11:59:48;;;;;;;14.00;9.33;;;3.40;1.00;;;;;;5050788;28;20456;-61
2023/01/29 12:02:41;;;;;;;11.60;9.23;;;3.90;1.00;;;;;;5049474;28;20475;-60
2023/01/29 12:05:19;;;;;;;12.60;9.47;;;4.00;1.00;;;;;;5046039;28;20452;-61
2023/01/29 12:07:50;;;;;;;13.20;9.30;;;4.10;1.00;;;;;;5051521;28;20493;-61
2023/01/29 12:10:30;;;;;;;12.37;10.13;;;4.10;1.00;;;;;;5048800;28;20547;-61
2023/01/29 12:13:08;;;;;;;11.97;9.83;;;4.40;1.00;;;;;;5053861;28;20442;-62
2023/01/29 12:15:37;;;;;;;13.40;9.80;;;4.60;1.00;;;;;;5050835;28;20871;-63
2023/01/29 12:18:30;;;;;;;11.00;9.77;;;4.70;1.00;;;;;;5046682;28;20506;-61
2023/01/29 12:21:01;;;;;;;14.87;10.63;;;4.90;1.00;;;;;;5046469;28;20489;-60
2023/01/29 12:23:35;;;;;;;13.63;10.73;;;4.90;1.00;;;;;;5050364;28;20604;-61
2023/01/29 12:26:14;;;;;;;12.77;9.60;;;4.80;1.00;;;;;;5050145;28;20456;-61
2023/01/29 12:29:19;;;;;;;12.87;10.70;;;4.90;1.00;;;;;;5054051;28;20646;-62
2023/01/29 12:31:57;;;;;;;13.63;9.43;;;4.90;1.00;;;;;;5047526;28;20457;-61
2023/01/29 12:34:38;;;;;;;12.53;10.10;;;5.20;1.00;;;;;;5047716;28;20496;-62
2023/01/29 12:37:29;;;;;;;12.00;10.03;;;5.20;1.00;;;;;;5054641;28;20435;-61
2023/01/29 12:39:55;;;;;;;11.90;9.50;;;5.20;1.00;;;;;;5048795;28;20479;-61
2023/01/29 12:42:23;;;;;;;13.73;10.03;;;5.20;1.00;;;;;;5050696;28;20441;-61
2023/01/29 12:44:56;;;;;;;12.93;9.37;;;5.00;1.00;;;;;;5055250;28;20248;-61
2023/01/29 12:47:36;;;;;;;10.30;8.67;;;5.00;1.00;;;;;;5049387;28;20447;-60
2023/01/29 12:50:12;;;;;;;14.37;9.50;;;5.00;1.00;;;;;;5048365;28;20988;-59
2023/01/29 12:52:51;;;;;;;11.83;9.47;;;5.00;1.00;;;;;;5053635;28;20483;-61
2023/01/29 12:55:23;;;;;;;11.47;8.70;;;4.90;1.00;;;;;;5046344;28;20479;-61
2023/01/29 12:58:00;;;;;;;11.47;9.60;;;5.00;1.00;;;;;;5050278;28;20453;-62
2023/01/29 13:00:39;;;;;;;11.63;9.40;;;5.10;1.00;;;;;;5045307;28;20448;-61
2023/01/29 13:03:18;;;;;;;9.63;8.10;;;5.10;1.00;;;;;;5050102;28;20457;-62
2023/01/29 13:05:55;;;;;;;10.97;8.63;;;5.20;1.00;;;;;;5050787;28;20511;-62
2023/01/29 13:08:29;;;;;;;11.47;9.70;;;4.90;1.00;;;;;;5048848;28;20452;-60
2023/01/29 13:10:59;;;;;;;10.60;8.73;;;4.80;1.00;;;;;;5046295;28;20448;-61
2023/01/29 13:13:51;;;;;;;11.27;8.37;;;4.70;1.00;;;;;;5049125;28;20444;-60
2023/01/29 13:16:22;;;;;;;14.43;9.17;;;4.80;1.00;;;;;;5050416;28;20437;-61
2023/01/29 13:19:04;;;;;;;15.10;9.53;;;4.70;1.00;;;;;;5045761;28;21007;-61
2023/01/29 13:21:41;;;;;;;12.90;9.37;;;4.60;1.00;;;;;;5046500;28;21046;-61
2023/01/29 13:24:14;;;;;;;15.47;11.70;;;4.80;1.00;;;;;;5046570;28;20976;-62
2023/01/29 13:26:44;;;;;;;10.73;8.50;;;4.70;1.00;;;;;;5047725;28;20459;-61
2023/01/29 13:29:24;;;;;;;13.57;10.00;;;4.70;1.00;;;;;;5048024;28;20445;-61
2023/01/29 13:31:52;;;;;;;13.47;10.43;;;4.70;1.00;;;;;;5047496;28;20893;-61
2023/01/29 13:34:27;;;;;;;16.13;9.17;;;4.70;1.00;;;;;;5048397;28;20777;-63
2023/01/29 13:36:56;;;;;;;11.93;9.50;;;4.80;1.00;;;;;;5050345;28;20430;-61
2023/01/29 13:39:29;;;;;;;12.63;9.50;;;4.80;1.00;;;;;;5053897;28;20447;-65
2023/01/29 13:41:57;;;;;;;12.20;10.80;;;5.00;1.00;;;;;;5047975;28;22270;-64
2023/01/29 13:44:27;;;;;;;14.00;9.97;;;5.00;1.00;;;;;;5052442;28;20956;-64